Aviation Digital Data Service (ADDS)

Output produced by METARs form (1726 UTC 31 July 2015)
found at http://www.aviationweather.gov/adds/metars/
 
KDUJ 311653Z AUTO 26008KT 10SM SCT045 BKN080 27/14 A2997 RMK AO2 SLP136 T02670144
KDUJ 311553Z AUTO 27010KT 10SM FEW042 FEW050 27/16 A2999 RMK AO2 SLP141 T02670156
KDUJ 311453Z AUTO 24007KT 10SM CLR 24/16 A3000 RMK AO2 SLP145 T02440156 58004
KDUJ 311353Z AUTO 27006KT 10SM CLR 23/16 A3000 RMK AO2 SLP147 T02280161
KDUJ 311253Z AUTO 24005KT 10SM CLR 21/16 A3001 RMK AO2 SLP148 T02110161
KDUJ 311153Z AUTO 24004KT 10SM CLR 18/15 A3001 RMK AO2 SLP149 T01830150 10183 20156 53012
KDUJ 311053Z AUTO 23003KT 10SM CLR 16/13 A2999 RMK AO2 SLP143 T01560133
KDUJ 310953Z AUTO 23004KT 10SM FEW060 16/13 A2998 RMK AO2 SLP139 T01560128
KDUJ 310853Z AUTO 24004KT 10SM FEW060 16/13 A2997 RMK AO2 SLP136 T01610128 58002
KDUJ 310753Z AUTO 24005KT 10SM SCT060 17/13 A2997 RMK AO2 SLP136 T01720128
KDUJ 310653Z AUTO 24006KT 10SM BKN065 18/13 A2998 RMK AO2 SLP137 T01780128
KDUJ 310553Z AUTO 24006KT 10SM SCT060 18/12 A2998 RMK AO2 SLP138 T01780122 10244 20167 58004
KDUJ 310453Z AUTO 23004KT 10SM CLR 17/12 A2999 RMK AO2 SLP141 T01720117 402890167
KDUJ 310353Z AUTO 22003KT 10SM CLR 18/12 A2999 RMK AO2 SLP142 T01780117
KDUJ 310253Z AUTO 24004KT 10SM CLR 18/12 A2999 RMK AO2 SLP144 T01780117 51011
KDUJ 310153Z AUTO 30005KT 10SM CLR 21/11 A2999 RMK AO2 SLP142 T02110111
KDUJ 310053Z AUTO 29007KT 10SM CLR 23/12 A2997 RMK AO2 SLP136 T02280122
KDUJ 302353Z AUTO 28009KT 10SM CLR 24/12 A2996 RMK AO2 SLP130 T02440122 10289 20244 53006
KDUJ 302253Z AUTO 29010G16KT 10SM CLR 26/13 A2994 RMK AO2 SLP124 T02610128
KDUJ 302153Z AUTO 29010KT 10SM FEW055 27/13 A2994 RMK AO2 SLP124 T02720133
KDUJ 302053Z AUTO 26011G18KT 10SM CLR 28/13 A2994 RMK AO2 SLP122 T02780133 56008
KDUJ 301953Z AUTO 29010G19KT 10SM FEW055 28/13 A2994 RMK AO2 SLP122 T02780133
KDUJ 301853Z AUTO 28012G17KT 10SM FEW055 28/13 A2995 RMK AO2 SLP125 T02830133
KDUJ 301753Z AUTO 29011G20KT 10SM CLR 28/14 A2996 RMK AO2 SLP130 T02830139 10289 20217 58004
KDUJ 301744Z AUTO 25010G17KT 10SM CLR 28/13 A2996 RMK AO2 T02780133
KDUJ 301729Z AUTO 29014G21KT 1 3/4SM HZ CLR 28/13 A2997 RMK AO2 T02780128
KDUJ 301653Z AUTO 27012G17KT 9SM 28/13 A2998 RMK AO2 SLP134 T02780133 $
KDUJ 301553Z AUTO 28008KT 10SM CLR 27/14 A2998 RMK AO2 SLP136 T02720139
KDUJ 301453Z AUTO 29009KT 10SM CLR 25/15 A2998 RMK AO2 SLP135 T02500150 53004
KDUJ 301353Z AUTO 29006KT 10SM CLR 24/17 A2997 RMK AO2 SLP132 T02440167
KDUJ 301253Z AUTO 29006KT 10SM SCT080 23/18 A2996 RMK AO2 SLP130 T02280178
KDUJ 301153Z AUTO 28006KT 8SM FEW030 SCT055 22/19 A2996 RMK AO2 SLP130 60013 70013 T02170189 10233 20217 52012
KDUJ 301116Z AUTO 28006KT 6SM HZ BKN030 BKN036 22/19 A2996 RMK AO2 T02220194
KDUJ 301106Z AUTO 31007KT 4SM HZ FEW005 SCT024 OVC029 23/20 A2996 RMK AO2 T02280200
KDUJ 301053Z AUTO 30005KT 2SM BR SCT007 BKN018 OVC029 23/21 A2995 RMK AO2 SLP127 T02280206
KDUJ 301037Z AUTO 29005KT 1 1/2SM BR BKN008 OVC013 23/21 A2995 RMK AO2 CIG 003V010 T02280211
KDUJ 301029Z AUTO 26006KT 2SM BR BKN008 OVC013 23/21 A2995 RMK AO2 CIG 006V010 T02280211
KDUJ 301002Z AUTO 25005KT 1 1/4SM BR FEW006 BKN012 OVC016 23/21 A2993 RMK AO2 LTG DSNT N T02280211
KDUJ 300953Z AUTO 24005KT 1 3/4SM BR BKN014 OVC020 23/21 A2994 RMK AO2 RAE02B13E30 SLP119 P0002 T02280211
KDUJ 300935Z AUTO 25005KT 1 1/2SM BR SCT013 BKN019 OVC075 23/21 A2993 RMK AO2 LTG DSNT N AND NW RAE02B13E30 P0002 T02280211
KDUJ 300908Z AUTO 24004KT 1 3/4SM BR SCT019 BKN033 OVC045 23/21 A2993 RMK AO2 LTG DSNT NW RAE02 P0000 T02280211
KDUJ 300900Z AUTO 23004KT 2SM -RA BR BKN019 OVC045 23/21 A2993 RMK AO2 P0000 T02280211
KDUJ 300853Z AUTO 23004KT 1 1/4SM -RA BR SCT016 SCT032 OVC043 23/21 A2993 RMK AO2 RAB33 SLP116 P0011 60011 T02280211 55009
KDUJ 300845Z AUTO 25006KT 1 1/4SM -RA BR SCT016 BKN032 OVC047 23/21 A2993 RMK AO2 RAB33 P0009 T02280211
KDUJ 300834Z AUTO 24005KT 1 3/4SM -RA BR SCT018 BKN027 OVC042 23/21 A2993 RMK AO2 RAB33 P0004 T02280206
KDUJ 300828Z AUTO 25005KT 4SM HZ SCT018 BKN027 OVC042 23/21 A2993 RMK AO2 T02330206
KDUJ 300753Z AUTO 24003KT 5SM HZ SCT032 23/20 A2992 RMK AO2 SLP115 T02280200
KDUJ 300653Z AUTO 17004KT 6SM HZ CLR 23/20 A2993 RMK AO2 SLP119 T02330200
KDUJ 300553Z AUTO 21003KT 7SM FEW043 23/21 A2996 RMK AO2 SLP127 T02280206 10278 20228 56004